Metar værinformasjon fra luftfart     ENZV Stavanger Airport, Sola
Temperatur
45°F Temperatur
39°F Duggpunkt
81% Luftfuktighet



Vind
10 MPT
16 KM/T
4 M/S
9 KNP



280°
V
Nåværende forhold

Delvis overskyet Delvis overskyet
Trykk 1020.92 (hPa) - 30.15 (inHg)
Sikt 6.2 (mil) - 10 (km)
Flyplass
Flyplass-kode ENZV

Plassering: Stavanger Airport, Sola
Avstand: 14 (mi)

Metar:
ENZV 281250Z 28009KT 9999 FEW028 07/04 Q1021

Tid: 28-01-2023 13:50 CET